createdAt,value
2023-03-10T00:00:25.151Z,100244.00
2023-03-10T00:03:00.863Z,100236.00
2023-03-10T00:05:34.071Z,100231.00
2023-03-10T00:08:07.486Z,100228.00
2023-03-10T00:10:40.515Z,100220.00
2023-03-10T00:13:13.635Z,100217.00
2023-03-10T00:15:46.727Z,100206.00
2023-03-10T00:18:19.692Z,100211.00
2023-03-10T00:20:56.698Z,100195.00
2023-03-10T00:23:29.921Z,100200.00
2023-03-10T00:26:07.069Z,100199.00
2023-03-10T00:28:40.016Z,100190.00
2023-03-10T00:31:18.315Z,100191.00
2023-03-10T00:33:52.180Z,100176.00
2023-03-10T00:36:30.361Z,100179.00
2023-03-10T00:39:04.578Z,100173.00
2023-03-10T00:41:40.775Z,100167.00
2023-03-10T00:44:13.889Z,100178.00
2023-03-10T00:46:49.506Z,100172.00
2023-03-10T00:49:23.087Z,100173.00
2023-03-10T00:51:56.375Z,100171.00
2023-03-10T00:54:29.745Z,100174.00
2023-03-10T00:57:02.794Z,100171.00
2023-03-10T00:59:49.474Z,100162.00
2023-03-10T01:02:09.940Z,100167.00
2023-03-10T01:04:43.135Z,100164.00
2023-03-10T01:07:16.175Z,100158.00
2023-03-10T01:09:49.177Z,100164.00
2023-03-10T01:12:22.185Z,100151.00
2023-03-10T01:14:55.129Z,100160.00
2023-03-10T01:17:28.090Z,100153.00
2023-03-10T01:20:01.002Z,100149.00
2023-03-10T01:22:33.919Z,100144.00
2023-03-10T01:25:06.885Z,100144.00
2023-03-10T01:27:40.011Z,100142.00
2023-03-10T01:30:16.380Z,100139.00
2023-03-10T01:32:49.459Z,100146.00
2023-03-10T01:35:22.835Z,100147.00
2023-03-10T01:37:55.589Z,100137.00
2023-03-10T01:40:29.889Z,100143.00
2023-03-10T01:43:20.603Z,100134.00
2023-03-10T01:45:58.302Z,100135.00
2023-03-10T01:48:32.002Z,100130.00
2023-03-10T01:51:05.314Z,100128.00
2023-03-10T01:53:39.886Z,100128.00
2023-03-10T01:56:12.878Z,100128.00
2023-03-10T01:58:47.814Z,100115.00
2023-03-10T02:01:21.963Z,100125.00
2023-03-10T02:04:05.892Z,100122.00
2023-03-10T02:06:40.060Z,100117.00
2023-03-10T02:09:13.643Z,100115.00
2023-03-10T02:11:46.827Z,100105.00
2023-03-10T02:14:20.065Z,100112.00
2023-03-10T02:16:53.684Z,100115.00
2023-03-10T02:19:28.793Z,100115.00
2023-03-10T02:22:06.819Z,100104.00
2023-03-10T02:24:50.897Z,100110.00
2023-03-10T02:27:26.642Z,100102.00
2023-03-10T02:30:04.639Z,100102.00
2023-03-10T02:32:39.371Z,100096.00
2023-03-10T02:35:12.832Z,100104.00
2023-03-10T02:37:45.924Z,100096.00
2023-03-10T02:40:42.608Z,100107.00
2023-03-10T02:43:35.484Z,100100.00
2023-03-10T02:46:10.575Z,100097.00
2023-03-10T02:48:44.885Z,100096.00
2023-03-10T02:51:29.679Z,100092.00
2023-03-10T02:54:04.633Z,100093.00
2023-03-10T02:56:38.470Z,100096.00
2023-03-10T02:59:12.416Z,100104.00
2023-03-10T03:01:45.537Z,100114.00
2023-03-10T03:04:18.653Z,100109.00
2023-03-10T03:06:51.802Z,100109.00
2023-03-10T03:09:25.012Z,100115.00
2023-03-10T03:11:57.928Z,100112.00
2023-03-10T03:14:30.927Z,100109.00
2023-03-10T03:17:04.037Z,100118.00
2023-03-10T03:19:37.529Z,100111.00
2023-03-10T03:22:10.490Z,100117.00
2023-03-10T03:24:43.827Z,100115.00
2023-03-10T03:27:16.936Z,100109.00
2023-03-10T03:29:49.740Z,100116.00
2023-03-10T03:32:22.790Z,100118.00
2023-03-10T03:34:55.891Z,100121.00
2023-03-10T03:37:28.735Z,100121.00
2023-03-10T03:40:02.101Z,100132.00
2023-03-10T03:42:35.122Z,100132.00
2023-03-10T03:45:10.245Z,100128.00
2023-03-10T03:47:42.450Z,100127.00
2023-03-10T03:50:34.500Z,100127.00
2023-03-10T03:53:07.821Z,100127.00
2023-03-10T03:55:40.709Z,100132.00
2023-03-10T03:58:13.629Z,100131.00
2023-03-10T04:00:46.655Z,100128.00
2023-03-10T04:03:19.721Z,100127.00
2023-03-10T04:05:53.130Z,100129.00
2023-03-10T04:08:26.242Z,100130.00
2023-03-10T04:10:59.629Z,100124.00
2023-03-10T04:13:32.696Z,100127.00
2023-03-10T04:16:05.806Z,100129.00
2023-03-10T04:18:38.953Z,100126.00
2023-03-10T04:21:12.169Z,100127.00
2023-03-10T04:23:45.775Z,100114.00
2023-03-10T04:26:18.819Z,100120.00
2023-03-10T04:28:51.848Z,100124.00
2023-03-10T04:31:24.999Z,100127.00
2023-03-10T04:33:57.922Z,100134.00
2023-03-10T04:36:31.105Z,100139.00
2023-03-10T04:39:04.177Z,100133.00
2023-03-10T04:41:37.354Z,100134.00
2023-03-10T04:44:24.486Z,100133.00
2023-03-10T04:46:44.256Z,100145.00
2023-03-10T04:49:17.459Z,100153.00
2023-03-10T04:51:55.195Z,100150.00
2023-03-10T04:54:28.943Z,100151.00
2023-03-10T04:57:02.017Z,100157.00
2023-03-10T04:59:34.970Z,100165.00
2023-03-10T05:02:08.394Z,100157.00
2023-03-10T05:04:41.685Z,100165.00
2023-03-10T05:07:14.675Z,100168.00
2023-03-10T05:09:48.785Z,100168.00
2023-03-10T05:12:21.747Z,100168.00
2023-03-10T05:14:54.825Z,100175.00
2023-03-10T05:17:29.353Z,100173.00
2023-03-10T05:20:03.673Z,100184.00
2023-03-10T05:22:36.749Z,100177.00
2023-03-10T05:25:10.853Z,100179.00
2023-03-10T05:27:44.149Z,100192.00
2023-03-10T05:30:18.664Z,100182.00
2023-03-10T05:32:51.725Z,100182.00
2023-03-10T05:35:24.863Z,100191.00
2023-03-10T05:37:57.811Z,100178.00
2023-03-10T05:40:30.838Z,100178.00
2023-03-10T05:43:04.958Z,100177.00
2023-03-10T05:45:38.073Z,100194.00
2023-03-10T05:48:11.415Z,100194.00
2023-03-10T05:50:44.503Z,100206.00
2023-03-10T05:53:17.934Z,100206.00
2023-03-10T05:55:51.796Z,100203.00
2023-03-10T05:58:24.698Z,100208.00
2023-03-10T06:00:57.806Z,100215.00
2023-03-10T06:03:32.122Z,100207.00
2023-03-10T06:06:05.515Z,100212.00
2023-03-10T06:08:38.857Z,100207.00
2023-03-10T06:11:11.924Z,100215.00
2023-03-10T06:13:44.868Z,100216.00
2023-03-10T06:16:17.902Z,100228.00
2023-03-10T06:18:51.126Z,100220.00
2023-03-10T06:21:24.031Z,100224.00
2023-03-10T06:23:57.066Z,100216.00
2023-03-10T06:26:30.124Z,100218.00
2023-03-10T06:29:03.090Z,100223.00
2023-03-10T06:31:36.353Z,100225.00
2023-03-10T06:34:09.794Z,100234.00
2023-03-10T06:36:43.607Z,100223.00
2023-03-10T06:39:16.665Z,100221.00
2023-03-10T06:41:49.946Z,100230.00
2023-03-10T06:44:22.899Z,100235.00
2023-03-10T06:46:55.939Z,100247.00
2023-03-10T06:49:31.195Z,100245.00
2023-03-10T06:52:04.561Z,100238.00
2023-03-10T06:54:37.951Z,100235.00
2023-03-10T06:57:11.362Z,100234.00
2023-03-10T06:59:44.573Z,100236.00
2023-03-10T07:02:17.947Z,100242.00
2023-03-10T07:04:51.536Z,100244.00
2023-03-10T07:07:24.513Z,100255.00
2023-03-10T07:09:58.776Z,100262.00
2023-03-10T07:12:32.087Z,100271.00
2023-03-10T07:15:05.317Z,100285.00
2023-03-10T07:17:38.063Z,100301.00
2023-03-10T07:20:12.138Z,100304.00
2023-03-10T07:22:45.247Z,100310.00
2023-03-10T07:25:18.452Z,100324.00
2023-03-10T07:27:51.338Z,100333.00
2023-03-10T07:30:24.481Z,100340.00
2023-03-10T07:32:57.456Z,100336.00
2023-03-10T07:35:30.873Z,100335.00
2023-03-10T07:38:03.902Z,100335.00
2023-03-10T07:40:37.337Z,100348.00
2023-03-10T07:43:10.488Z,100354.00
2023-03-10T07:45:44.276Z,100341.00
2023-03-10T07:48:17.329Z,100349.00
2023-03-10T07:50:51.728Z,100355.00
2023-03-10T07:53:27.481Z,100362.00
2023-03-10T07:55:59.555Z,100376.00
2023-03-10T07:58:37.226Z,100376.00
2023-03-10T08:01:10.895Z,100389.00
2023-03-10T08:03:50.810Z,100388.00
2023-03-10T08:06:25.843Z,100391.00
2023-03-10T08:09:02.977Z,100394.00
2023-03-10T08:11:39.296Z,100404.00
2023-03-10T08:14:25.016Z,100399.00
2023-03-10T08:16:54.361Z,100406.00
2023-03-10T08:19:44.741Z,100418.00
2023-03-10T08:22:14.100Z,100423.00
2023-03-10T08:25:08.917Z,100439.00
2023-03-10T08:27:51.063Z,100440.00
2023-03-10T08:30:27.045Z,100436.00
2023-03-10T08:33:00.143Z,100439.00
2023-03-10T08:35:35.533Z,100442.00
2023-03-10T08:38:14.845Z,100439.00
2023-03-10T08:40:56.598Z,100461.00
2023-03-10T08:43:38.390Z,100449.00
2023-03-10T08:46:49.959Z,100458.00
2023-03-10T08:48:50.393Z,100460.00
2023-03-10T08:51:53.208Z,100485.00
2023-03-10T09:01:07.781Z,100473.00
2023-03-10T09:06:44.668Z,100478.00
2023-03-10T09:13:32.030Z,100495.00
2023-03-10T09:26:33.820Z,100506.00
2023-03-10T09:29:07.278Z,100519.00
2023-03-10T09:31:45.809Z,100521.00
2023-03-10T09:34:25.836Z,100525.00
2023-03-10T09:37:08.376Z,100525.00
2023-03-10T09:51:04.952Z,100530.00
2023-03-10T12:39:09.661Z,100609.00
2023-03-10T13:01:20.169Z,100627.00
2023-03-10T13:10:37.431Z,100623.00
2023-03-10T13:13:20.522Z,100634.00
2023-03-10T13:16:07.160Z,100646.00
2023-03-10T13:18:41.410Z,100642.00
2023-03-10T13:21:17.676Z,100644.00
2023-03-10T13:23:50.749Z,100632.00
2023-03-10T13:26:26.836Z,100628.00
2023-03-10T13:29:02.034Z,100622.00
2023-03-10T13:31:38.014Z,100627.00
2023-03-10T13:34:19.908Z,100637.00
2023-03-10T13:36:54.423Z,100635.00
2023-03-10T13:42:43.427Z,100626.00
2023-03-10T13:45:08.632Z,100624.00
2023-03-10T13:47:43.088Z,100625.00
2023-03-10T13:50:21.348Z,100622.00
2023-03-10T13:52:59.859Z,100615.00
2023-03-10T13:55:37.744Z,100621.00
2023-03-10T13:58:10.940Z,100624.00
2023-03-10T14:00:49.772Z,100628.00
2023-03-10T14:03:23.429Z,100627.00
2023-03-10T14:06:07.291Z,100621.00
2023-03-10T14:08:40.404Z,100628.00
2023-03-10T14:11:31.123Z,100632.00
2023-03-10T14:14:04.241Z,100626.00
2023-03-10T14:17:01.151Z,100622.00
2023-03-10T14:19:51.466Z,100621.00
2023-03-10T14:22:35.163Z,100630.00
2023-03-10T14:25:13.559Z,100625.00
2023-03-10T14:27:51.909Z,100635.00
2023-03-10T14:30:32.860Z,100631.00
2023-03-10T14:33:06.850Z,100642.00
2023-03-10T14:35:41.870Z,100633.00
2023-03-10T14:38:15.432Z,100658.00
2023-03-10T14:40:56.094Z,100653.00
2023-03-10T14:43:30.714Z,100654.00
2023-03-10T14:46:05.172Z,100650.00
2023-03-10T14:48:43.785Z,100650.00
2023-03-10T14:51:34.522Z,100655.00
2023-03-10T14:54:02.012Z,100653.00
2023-03-10T14:56:37.854Z,100646.00
2023-03-10T14:59:11.341Z,100652.00
2023-03-10T15:01:48.932Z,100650.00
2023-03-10T15:04:22.325Z,100650.00
2023-03-10T15:07:02.399Z,100653.00
2023-03-10T15:09:35.572Z,100645.00
2023-03-10T15:12:08.887Z,100645.00
2023-03-10T15:14:41.940Z,100642.00
2023-03-10T15:17:16.236Z,100649.00
2023-03-10T15:19:56.318Z,100645.00
2023-03-10T15:22:24.778Z,100652.00
2023-03-10T15:24:58.060Z,100649.00
2023-03-10T15:27:31.360Z,100647.00
2023-03-10T15:30:04.351Z,100648.00
2023-03-10T15:32:37.346Z,100653.00
2023-03-10T15:35:10.997Z,100655.00
2023-03-10T15:37:44.563Z,100658.00
2023-03-10T15:40:19.721Z,100659.00
2023-03-10T15:42:52.999Z,100660.00
2023-03-10T15:45:26.335Z,100657.00
2023-03-10T15:47:59.582Z,100663.00
2023-03-10T15:50:32.954Z,100660.00
2023-03-10T15:53:05.962Z,100663.00
2023-03-10T15:55:40.510Z,100660.00
2023-03-10T15:58:14.476Z,100668.00
2023-03-10T16:00:55.163Z,100666.00
2023-03-10T16:03:28.234Z,100659.00
2023-03-10T16:06:01.527Z,100671.00
2023-03-10T16:08:36.025Z,100664.00
2023-03-10T16:11:11.618Z,100671.00
2023-03-10T16:13:44.740Z,100666.00
2023-03-10T16:16:19.094Z,100666.00
2023-03-10T16:18:52.317Z,100668.00
2023-03-10T16:21:25.609Z,100672.00
2023-03-10T16:23:58.766Z,100663.00
2023-03-10T16:26:34.123Z,100672.00
2023-03-10T16:29:07.287Z,100684.00
2023-03-10T16:31:44.919Z,100681.00
2023-03-10T16:34:18.020Z,100677.00
2023-03-10T16:36:56.895Z,100674.00
2023-03-10T16:39:31.195Z,100676.00
2023-03-10T16:42:04.804Z,100678.00
2023-03-10T16:44:37.747Z,100675.00
2023-03-10T16:47:10.889Z,100670.00
2023-03-10T16:49:43.738Z,100680.00
2023-03-10T16:52:16.855Z,100671.00
2023-03-10T16:54:49.918Z,100673.00
2023-03-10T16:57:22.896Z,100674.00
2023-03-10T17:00:01.688Z,100679.00
2023-03-10T17:02:33.455Z,100679.00
2023-03-10T17:05:06.639Z,100669.00
2023-03-10T17:07:53.314Z,100682.00
2023-03-10T17:10:14.901Z,100691.00
2023-03-10T17:12:47.869Z,100680.00
2023-03-10T17:15:21.323Z,100687.00
2023-03-10T17:17:54.238Z,100682.00
2023-03-10T17:20:28.963Z,100686.00
2023-03-10T17:23:02.001Z,100691.00
2023-03-10T17:25:35.172Z,100686.00
2023-03-10T17:28:08.403Z,100689.00
2023-03-10T17:30:45.529Z,100693.00
2023-03-10T17:33:18.581Z,100692.00
2023-03-10T17:35:51.557Z,100704.00
2023-03-10T17:38:24.868Z,100709.00
2023-03-10T17:40:57.845Z,100702.00
2023-03-10T17:43:34.026Z,100709.00
2023-03-10T17:46:11.588Z,100711.00
2023-03-10T17:48:44.920Z,100712.00
2023-03-10T17:51:28.809Z,100705.00
2023-03-10T17:54:05.560Z,100719.00
2023-03-10T17:56:38.708Z,100723.00
2023-03-10T17:59:12.553Z,100722.00
2023-03-10T18:01:51.456Z,100727.00
2023-03-10T18:04:24.770Z,100726.00
2023-03-10T18:06:57.836Z,100726.00
2023-03-10T18:09:31.050Z,100734.00
2023-03-10T18:12:03.924Z,100738.00
2023-03-10T18:14:40.645Z,100742.00
2023-03-10T18:17:13.527Z,100741.00
2023-03-10T18:19:46.597Z,100741.00
2023-03-10T18:22:19.660Z,100749.00
2023-03-10T18:24:53.356Z,100743.00
2023-03-10T18:27:26.207Z,100744.00
2023-03-10T18:29:59.238Z,100746.00
2023-03-10T18:32:32.535Z,100749.00
2023-03-10T18:35:06.046Z,100749.00
2023-03-10T18:37:39.013Z,100756.00
2023-03-10T18:40:16.880Z,100758.00
2023-03-10T18:42:50.476Z,100764.00
2023-03-10T18:45:23.484Z,100764.00
2023-03-10T18:47:56.489Z,100775.00
2023-03-10T18:50:29.552Z,100775.00
2023-03-10T18:53:02.580Z,100789.00
2023-03-10T18:55:35.597Z,100778.00
2023-03-10T18:58:08.506Z,100783.00
2023-03-10T19:00:41.601Z,100789.00
2023-03-10T19:03:15.548Z,100804.00
2023-03-10T19:05:48.777Z,100801.00
2023-03-10T19:08:21.977Z,100808.00
2023-03-10T19:11:07.301Z,100809.00
2023-03-10T19:13:47.261Z,100820.00
2023-03-10T19:16:20.793Z,100828.00
2023-03-10T19:18:53.860Z,100820.00
2023-03-10T19:21:26.781Z,100817.00
2023-03-10T19:23:59.621Z,100833.00
2023-03-10T19:26:33.445Z,100831.00
2023-03-10T19:29:07.113Z,100838.00
2023-03-10T19:31:40.398Z,100837.00
2023-03-10T19:34:17.348Z,100835.00
2023-03-10T19:36:50.376Z,100836.00
2023-03-10T19:39:24.491Z,100847.00
2023-03-10T19:41:57.690Z,100836.00
2023-03-10T19:44:30.897Z,100843.00
2023-03-10T19:47:04.147Z,100843.00
2023-03-10T19:49:37.214Z,100851.00
2023-03-10T19:52:10.402Z,100851.00
2023-03-10T19:54:43.409Z,100863.00
2023-03-10T19:57:16.598Z,100854.00
2023-03-10T19:59:49.593Z,100859.00
2023-03-10T20:02:26.353Z,100868.00
2023-03-10T20:04:59.512Z,100874.00
2023-03-10T20:07:32.423Z,100865.00
2023-03-10T20:10:09.709Z,100866.00
2023-03-10T20:12:42.678Z,100868.00
2023-03-10T20:15:15.937Z,100863.00
2023-03-10T20:17:49.015Z,100865.00
2023-03-10T20:20:25.941Z,100863.00
2023-03-10T20:22:58.783Z,100858.00
2023-03-10T20:25:31.919Z,100868.00
2023-03-10T20:28:04.785Z,100875.00
2023-03-10T20:30:37.864Z,100870.00
2023-03-10T20:33:11.399Z,100871.00
2023-03-10T20:35:44.678Z,100866.00
2023-03-10T20:38:17.780Z,100872.00
2023-03-10T20:40:51.139Z,100874.00
2023-03-10T20:43:24.431Z,100870.00
2023-03-10T20:45:57.493Z,100869.00
2023-03-10T20:48:30.421Z,100878.00
2023-03-10T20:51:03.912Z,100876.00
2023-03-10T20:53:38.875Z,100873.00
2023-03-10T20:56:16.301Z,100888.00
2023-03-10T20:58:49.264Z,100890.00
2023-03-10T21:01:24.389Z,100894.00
2023-03-10T21:03:59.967Z,100895.00
2023-03-10T21:06:33.110Z,100900.00
2023-03-10T21:09:07.345Z,100901.00
2023-03-10T21:11:40.430Z,100906.00
2023-03-10T21:14:13.583Z,100902.00
2023-03-10T21:16:48.050Z,100910.00
2023-03-10T21:19:21.114Z,100919.00
2023-03-10T21:21:54.177Z,100931.00
2023-03-10T21:24:27.322Z,100924.00
2023-03-10T21:27:00.558Z,100932.00
2023-03-10T21:29:33.747Z,100932.00
2023-03-10T21:32:07.043Z,100935.00
2023-03-10T21:34:39.756Z,100932.00
2023-03-10T21:37:14.002Z,100941.00
2023-03-10T21:39:47.076Z,100950.00
2023-03-10T21:42:24.046Z,100952.00
2023-03-10T21:45:00.194Z,100952.00
2023-03-10T21:47:32.812Z,100957.00
2023-03-10T21:50:05.850Z,100963.00
2023-03-10T21:52:38.886Z,100954.00
2023-03-10T21:55:13.630Z,100958.00
2023-03-10T21:57:53.278Z,100967.00
2023-03-10T22:00:26.777Z,100954.00
2023-03-10T22:02:59.938Z,100942.00
2023-03-10T22:17:50.688Z,100963.00
2023-03-10T22:23:31.740Z,100997.00
2023-03-10T22:26:04.802Z,100981.00
2023-03-10T22:28:37.709Z,100986.00
2023-03-10T22:31:14.777Z,100996.00
2023-03-10T22:33:47.673Z,100995.00
2023-03-10T22:36:20.915Z,100991.00
2023-03-10T22:38:54.984Z,100998.00
2023-03-10T22:41:29.687Z,100998.00
2023-03-10T22:44:02.782Z,100993.00
2023-03-10T22:46:36.596Z,101001.00
2023-03-10T22:49:09.665Z,100997.00
2023-03-10T22:51:43.521Z,100998.00
2023-03-10T22:54:16.602Z,100995.00
2023-03-10T22:56:49.811Z,101007.00
2023-03-10T22:59:23.199Z,100998.00
2023-03-10T23:01:56.994Z,100987.00
2023-03-10T23:04:30.435Z,101003.00
2023-03-10T23:07:03.827Z,100997.00
2023-03-10T23:09:36.990Z,101006.00
2023-03-10T23:12:10.288Z,101013.00
2023-03-10T23:14:46.290Z,101001.00
2023-03-10T23:17:19.539Z,100995.00
2023-03-10T23:19:53.376Z,100994.00
2023-03-10T23:22:31.194Z,100997.00
2023-03-10T23:25:04.171Z,100995.00
2023-03-10T23:27:37.290Z,100996.00
2023-03-10T23:30:12.100Z,100996.00
2023-03-10T23:32:45.735Z,100994.00
2023-03-10T23:35:23.835Z,100999.00
2023-03-10T23:37:56.870Z,100993.00
2023-03-10T23:40:31.500Z,100997.00
2023-03-10T23:43:06.231Z,100997.00
2023-03-10T23:45:40.664Z,100993.00
2023-03-10T23:48:17.540Z,100984.00
2023-03-10T23:50:51.747Z,100995.00
2023-03-10T23:53:24.866Z,100985.00
2023-03-10T23:55:58.955Z,100984.00
2023-03-10T23:58:32.426Z,100976.00
